Time;durP1;ratioP1;P1;durP2;ratioP2;P2;SDS_P1;SDS_P2;PMS_P1;PMS_P2;Temp;Humidity;BMP_temperature;BMP_pressure;BME280_temperature;BME280_humidity;BME280_pressure;Samples;Min_cycle;Max_cycle;Signal;HPM_P1;HPM_P2
2023/12/23 00:00:10;;;;;;;11.88;11.27;;;;;;;;;;5080107;28;20024;-61
2023/12/23 00:02:35;;;;;;;11.60;11.00;;;;;;;;;;5067801;28;20052;-67
2023/12/23 00:05:01;;;;;;;11.40;10.90;;;;;;;;;;5063106;28;20483;-60
2023/12/23 00:07:26;;;;;;;11.93;11.32;;;;;;;;;;5062024;28;20094;-60
2023/12/23 00:09:51;;;;;;;11.20;10.70;;;;;;;;;;5067587;28;20086;-60
2023/12/23 00:12:17;;;;;;;11.73;11.13;;;;;;;;;;5070861;28;20024;-60
2023/12/23 00:14:42;;;;;;;11.52;10.93;;;;;;;;;;5075427;28;20028;-60
2023/12/23 00:17:07;;;;;;;11.23;10.73;;;;;;;;;;5071503;28;20111;-60
2023/12/23 00:19:33;;;;;;;11.43;10.88;;;;;;;;;;5071848;28;20099;-60
2023/12/23 00:21:58;;;;;;;11.65;11.05;;;;;;;;;;5077436;28;20388;-60
2023/12/23 00:24:29;;;;;;;11.07;10.57;;;;;;;;;;5070203;28;20029;-60
2023/12/23 00:26:57;;;;;;;11.20;10.70;;;;;;;;;;5067584;28;20052;-60
2023/12/23 00:29:23;;;;;;;11.60;11.00;;;;;;;;;;5071493;28;20579;-61
2023/12/23 00:31:48;;;;;;;11.88;11.27;;;;;;;;;;5074359;28;20024;-60
2023/12/23 00:34:13;;;;;;;11.20;10.70;;;;;;;;;;5068857;28;20524;-60
2023/12/23 00:36:39;;;;;;;11.70;11.10;;;;;;;;;;5068773;28;20087;-61
2023/12/23 00:39:04;;;;;;;11.73;11.13;;;;;;;;;;5073393;28;20028;-59
2023/12/23 00:41:29;;;;;;;11.63;11.02;;;;;;;;;;5065851;28;20020;-59
2023/12/23 00:43:54;;;;;;;11.90;11.30;;;;;;;;;;5077204;28;20020;-60
2023/12/23 00:46:20;;;;;;;11.70;11.10;;;;;;;;;;5071124;28;20025;-60
2023/12/23 00:48:45;;;;;;;11.40;10.90;;;;;;;;;;5079858;28;20024;-59
2023/12/23 00:51:11;;;;;;;11.20;10.70;;;;;;;;;;5071963;28;20032;-60
2023/12/23 00:53:37;;;;;;;11.40;10.90;;;;;;;;;;5072508;28;20502;-60
2023/12/23 00:56:02;;;;;;;11.48;10.93;;;;;;;;;;5065158;28;20131;-60
2023/12/23 00:58:28;;;;;;;11.30;10.80;;;;;;;;;;5073463;28;20159;-60
2023/12/23 01:00:53;;;;;;;11.68;11.10;;;;;;;;;;5072689;28;20025;-60
2023/12/23 01:03:18;;;;;;;11.57;11.05;;;;;;;;;;5068696;28;20512;-57
2023/12/23 01:05:44;;;;;;;11.68;11.10;;;;;;;;;;5076600;28;20556;-59
2023/12/23 01:08:09;;;;;;;11.40;10.90;;;;;;;;;;5069025;28;20072;-59
2023/12/23 01:10:34;;;;;;;11.85;11.25;;;;;;;;;;5070254;28;20086;-60
2023/12/23 01:13:00;;;;;;;11.77;11.18;;;;;;;;;;5071502;28;20396;-60
2023/12/23 01:15:25;;;;;;;11.88;11.27;;;;;;;;;;5073134;28;20032;-59
2023/12/23 01:17:51;;;;;;;11.77;11.18;;;;;;;;;;5071925;28;20410;-60
2023/12/23 01:20:16;;;;;;;11.30;10.80;;;;;;;;;;5065843;28;20364;-60
2023/12/23 01:22:41;;;;;;;11.73;11.13;;;;;;;;;;5066032;28;20029;-60
2023/12/23 01:25:07;;;;;;;10.90;10.40;;;;;;;;;;5070089;28;20429;-60
2023/12/23 01:27:33;;;;;;;11.00;10.50;;;;;;;;;;5072331;28;20077;-62
2023/12/23 01:29:58;;;;;;;11.13;10.63;;;;;;;;;;5071738;28;20488;-61
2023/12/23 01:32:23;;;;;;;11.00;10.50;;;;;;;;;;5073755;28;20031;-59
2023/12/23 01:34:49;;;;;;;11.73;11.13;;;;;;;;;;5074356;28;20035;-60
2023/12/23 01:37:14;;;;;;;10.98;10.48;;;;;;;;;;5071966;28;20127;-58
2023/12/23 01:39:40;;;;;;;11.07;10.57;;;;;;;;;;5065489;28;20162;-60
2023/12/23 01:42:05;;;;;;;11.63;11.02;;;;;;;;;;5066275;28;20025;-60
2023/12/23 01:44:30;;;;;;;11.50;10.90;;;;;;;;;;5077148;28;20020;-61
2023/12/23 01:46:56;;;;;;;11.20;10.70;;;;;;;;;;5068685;28;20034;-61
2023/12/23 01:49:22;;;;;;;11.10;10.60;;;;;;;;;;5072056;28;20063;-60
2023/12/23 01:51:49;;;;;;;10.68;10.18;;;;;;;;;;5063665;28;20056;-60
2023/12/23 01:54:14;;;;;;;10.80;10.30;;;;;;;;;;5072423;28;20567;-62
2023/12/23 01:56:40;;;;;;;11.15;10.65;;;;;;;;;;5069948;28;20107;-60
2023/12/23 01:59:05;;;;;;;11.07;10.57;;;;;;;;;;5076486;28;20095;-60
2023/12/23 02:01:31;;;;;;;11.02;10.52;;;;;;;;;;5069543;28;20166;-61
2023/12/23 02:03:56;;;;;;;11.75;11.15;;;;;;;;;;5070078;28;20099;-61
2023/12/23 02:06:22;;;;;;;11.32;10.82;;;;;;;;;;5067010;28;20033;-60
2023/12/23 02:08:47;;;;;;;11.32;10.80;;;;;;;;;;5071896;28;20121;-60
2023/12/23 02:11:16;;;;;;;11.20;10.70;;;;;;;;;;5073010;28;20039;-61
2023/12/23 02:13:50;;;;;;;10.95;10.45;;;;;;;;;;5070702;28;20021;-60
2023/12/23 02:16:16;;;;;;;11.50;10.90;;;;;;;;;;5072355;28;20052;-60
2023/12/23 02:18:43;;;;;;;12.18;11.57;;;;;;;;;;5068700;28;20017;-59
2023/12/23 02:21:08;;;;;;;11.10;10.60;;;;;;;;;;5068874;28;20028;-60
2023/12/23 02:23:34;;;;;;;10.60;10.10;;;;;;;;;;5070364;28;20107;-60
2023/12/23 02:26:00;;;;;;;11.00;10.50;;;;;;;;;;5068601;28;20034;-61
2023/12/23 02:28:26;;;;;;;10.90;10.40;;;;;;;;;;5068377;28;20104;-60
2023/12/23 02:30:52;;;;;;;10.98;10.48;;;;;;;;;;5068048;28;20107;-60
2023/12/23 02:33:17;;;;;;;10.65;10.15;;;;;;;;;;5070373;28;20079;-60
2023/12/23 02:35:43;;;;;;;10.68;10.18;;;;;;;;;;5070591;28;20024;-59
2023/12/23 02:38:09;;;;;;;10.60;10.10;;;;;;;;;;5070777;28;20016;-61
2023/12/23 02:40:34;;;;;;;10.82;10.32;;;;;;;;;;5074091;28;20032;-60
2023/12/23 02:43:01;;;;;;;10.88;10.38;;;;;;;;;;5067130;28;20021;-60
2023/12/23 02:45:27;;;;;;;11.30;10.70;;;;;;;;;;5068931;28;20398;-60
2023/12/23 02:47:52;;;;;;;11.77;11.18;;;;;;;;;;5081692;28;20032;-59
2023/12/23 02:50:18;;;;;;;10.90;10.40;;;;;;;;;;5072955;28;20035;-59
2023/12/23 02:52:43;;;;;;;11.50;10.90;;;;;;;;;;5071819;28;20453;-59
2023/12/23 02:55:08;;;;;;;11.27;10.77;;;;;;;;;;5070248;28;20032;-60
2023/12/23 02:57:34;;;;;;;10.90;10.40;;;;;;;;;;5073238;28;20024;-61
2023/12/23 02:59:59;;;;;;;11.00;10.50;;;;;;;;;;5072427;28;20030;-60
2023/12/23 03:02:24;;;;;;;11.30;10.80;;;;;;;;;;5064761;28;20017;-59
2023/12/23 03:04:50;;;;;;;12.02;11.43;;;;;;;;;;5068833;28;20071;-60
2023/12/23 03:07:15;;;;;;;11.30;10.80;;;;;;;;;;5069655;28;20042;-59
2023/12/23 03:09:40;;;;;;;11.40;10.90;;;;;;;;;;5067389;28;20052;-59
2023/12/23 03:12:06;;;;;;;11.75;11.15;;;;;;;;;;5070201;28;20075;-60
2023/12/23 03:14:31;;;;;;;11.68;11.07;;;;;;;;;;5072515;28;20032;-60
2023/12/23 03:16:56;;;;;;;11.20;10.70;;;;;;;;;;5067424;28;20044;-60
2023/12/23 03:19:22;;;;;;;11.60;11.00;;;;;;;;;;5069231;28;20021;-60
2023/12/23 03:21:48;;;;;;;10.82;10.32;;;;;;;;;;5064869;28;20448;-60
2023/12/23 03:24:13;;;;;;;11.10;10.60;;;;;;;;;;5069847;28;20500;-60
2023/12/23 03:26:39;;;;;;;10.70;10.20;;;;;;;;;;5072355;28;20040;-60
2023/12/23 03:29:07;;;;;;;11.48;10.88;;;;;;;;;;5072054;28;20029;-60
2023/12/23 03:31:33;;;;;;;11.18;10.68;;;;;;;;;;5068107;28;20043;-60
2023/12/23 03:34:02;;;;;;;11.40;10.80;;;;;;;;;;5068660;28;20024;-60
2023/12/23 03:36:28;;;;;;;10.77;10.27;;;;;;;;;;5070674;28;20024;-60
2023/12/23 03:38:55;;;;;;;11.60;11.00;;;;;;;;;;5068923;28;20082;-59
2023/12/23 03:41:20;;;;;;;11.70;11.10;;;;;;;;;;5079150;28;20027;-61
2023/12/23 03:43:46;;;;;;;11.13;10.63;;;;;;;;;;5072741;28;20024;-60
2023/12/23 03:46:11;;;;;;;11.32;10.75;;;;;;;;;;5069232;28;20036;-60
2023/12/23 03:48:36;;;;;;;11.23;10.73;;;;;;;;;;5066058;28;20059;-60
2023/12/23 03:51:02;;;;;;;11.18;10.68;;;;;;;;;;5075854;28;20020;-61
2023/12/23 03:53:27;;;;;;;10.60;10.10;;;;;;;;;;5071257;28;20028;-61
2023/12/23 03:55:53;;;;;;;10.98;10.48;;;;;;;;;;5070416;28;20020;-59
2023/12/23 03:58:18;;;;;;;11.93;11.30;;;;;;;;;;5068865;28;20028;-60
2023/12/23 04:00:43;;;;;;;10.75;10.25;;;;;;;;;;5069692;28;20039;-61
2023/12/23 04:03:09;;;;;;;11.18;10.63;;;;;;;;;;5070134;28;20561;-59
2023/12/23 04:05:34;;;;;;;10.75;10.25;;;;;;;;;;5070291;28;20400;-60
2023/12/23 04:07:59;;;;;;;10.90;10.40;;;;;;;;;;5070285;28;20017;-60
2023/12/23 04:10:25;;;;;;;11.40;10.80;;;;;;;;;;5069748;28;20020;-60
2023/12/23 04:12:50;;;;;;;11.52;10.93;;;;;;;;;;5070759;28;20029;-62
2023/12/23 04:15:16;;;;;;;11.45;10.85;;;;;;;;;;5064083;28;21808;-61
2023/12/23 04:17:42;;;;;;;10.77;10.27;;;;;;;;;;5067423;28;20488;-61
2023/12/23 04:20:08;;;;;;;10.70;10.20;;;;;;;;;;5063228;28;20032;-59
2023/12/23 04:22:34;;;;;;;10.60;10.10;;;;;;;;;;5070106;28;20484;-60
2023/12/23 04:24:59;;;;;;;10.80;10.30;;;;;;;;;;5070495;28;20025;-60
2023/12/23 04:27:24;;;;;;;11.43;10.82;;;;;;;;;;5071637;28;20076;-60
2023/12/23 04:29:50;;;;;;;10.73;10.23;;;;;;;;;;5069715;28;20120;-60
2023/12/23 04:32:17;;;;;;;10.82;10.32;;;;;;;;;;5066237;28;20073;-60
2023/12/23 04:34:42;;;;;;;11.35;10.75;;;;;;;;;;5067031;28;20027;-61
2023/12/23 04:37:07;;;;;;;11.75;11.15;;;;;;;;;;5070804;28;20037;-59
2023/12/23 04:39:33;;;;;;;10.60;10.10;;;;;;;;;;5070597;28;20048;-61
2023/12/23 04:41:58;;;;;;;11.10;10.60;;;;;;;;;;5072550;28;20380;-62
2023/12/23 04:44:24;;;;;;;11.07;10.57;;;;;;;;;;5069903;28;20116;-60
2023/12/23 04:46:50;;;;;;;10.45;9.95;;;;;;;;;;5070785;28;20485;-61
2023/12/23 04:49:15;;;;;;;10.80;10.30;;;;;;;;;;5073308;28;20028;-61
2023/12/23 04:51:44;;;;;;;10.65;10.15;;;;;;;;;;5071259;28;20028;-60
2023/12/23 04:54:12;;;;;;;10.70;10.20;;;;;;;;;;5073978;28;20025;-61
2023/12/23 04:56:38;;;;;;;10.55;10.05;;;;;;;;;;5070602;28;20107;-60
2023/12/23 04:59:03;;;;;;;11.48;10.88;;;;;;;;;;5072735;28;20528;-61
2023/12/23 05:01:29;;;;;;;10.90;10.40;;;;;;;;;;5072066;28;20025;-61
2023/12/23 05:03:54;;;;;;;10.85;10.35;;;;;;;;;;5066717;28;20107;-60
2023/12/23 05:06:19;;;;;;;11.43;10.82;;;;;;;;;;5073890;28;20033;-60
2023/12/23 05:08:45;;;;;;;10.68;10.18;;;;;;;;;;5073487;28;20104;-61
2023/12/23 05:11:10;;;;;;;11.30;10.70;;;;;;;;;;5072367;28;20036;-60
2023/12/23 05:13:36;;;;;;;10.57;10.07;;;;;;;;;;5070742;28;20276;-62
2023/12/23 05:16:01;;;;;;;12.07;11.38;;;;;;;;;;5070993;28;20083;-61
2023/12/23 05:18:26;;;;;;;10.75;10.25;;;;;;;;;;5066172;28;20061;-60
2023/12/23 05:20:52;;;;;;;11.00;10.50;;;;;;;;;;5066768;28;20017;-60
2023/12/23 05:23:17;;;;;;;11.00;10.50;;;;;;;;;;5071481;28;20079;-60
2023/12/23 05:25:42;;;;;;;10.35;9.85;;;;;;;;;;5065248;28;20017;-62
2023/12/23 05:28:08;;;;;;;11.23;10.70;;;;;;;;;;5072629;28;20536;-61
2023/12/23 05:30:33;;;;;;;10.93;10.43;;;;;;;;;;5072870;28;20055;-61
2023/12/23 05:32:59;;;;;;;11.63;11.02;;;;;;;;;;5069674;28;20540;-62
2023/12/23 05:35:24;;;;;;;11.45;10.85;;;;;;;;;;5067613;28;20434;-60
2023/12/23 05:37:50;;;;;;;11.60;11.00;;;;;;;;;;5063450;28;20044;-60
2023/12/23 05:40:15;;;;;;;12.32;11.63;;;;;;;;;;5067225;28;20023;-60
2023/12/23 05:42:41;;;;;;;10.80;10.30;;;;;;;;;;5063726;28;20490;-60
2023/12/23 05:45:06;;;;;;;11.55;10.95;;;;;;;;;;5065807;28;20471;-59
2023/12/23 05:47:32;;;;;;;10.77;10.27;;;;;;;;;;5065706;28;20035;-60
2023/12/23 05:49:57;;;;;;;10.88;10.38;;;;;;;;;;5060087;28;20029;-60
2023/12/23 05:52:23;;;;;;;10.98;10.48;;;;;;;;;;5081435;28;20024;-60
2023/12/23 05:54:49;;;;;;;11.43;10.82;;;;;;;;;;5064102;28;20031;-61
2023/12/23 05:57:16;;;;;;;11.15;10.63;;;;;;;;;;5060210;28;20550;-60
2023/12/23 05:59:41;;;;;;;11.48;10.88;;;;;;;;;;5060338;28;20021;-59
2023/12/23 06:02:06;;;;;;;11.88;11.27;;;;;;;;;;5060961;28;20044;-59
2023/12/23 06:04:32;;;;;;;11.38;10.77;;;;;;;;;;5063700;28;20047;-60
2023/12/23 06:06:59;;;;;;;11.82;11.23;;;;;;;;;;5069479;28;20056;-60
2023/12/23 06:09:24;;;;;;;12.90;12.20;;;;;;;;;;5062871;28;20075;-60
2023/12/23 06:11:50;;;;;;;11.50;10.90;;;;;;;;;;5066548;28;20063;-60
2023/12/23 06:14:16;;;;;;;11.57;10.98;;;;;;;;;;5064966;28;20032;-60
2023/12/23 06:16:41;;;;;;;11.52;10.93;;;;;;;;;;5064542;28;20048;-60
2023/12/23 06:19:07;;;;;;;11.45;10.85;;;;;;;;;;5060424;28;20387;-62
2023/12/23 06:21:32;;;;;;;11.40;10.80;;;;;;;;;;5061694;28;20052;-60
2023/12/23 06:23:58;;;;;;;12.13;11.52;;;;;;;;;;5062974;28;20055;-59
2023/12/23 06:26:24;;;;;;;11.27;10.70;;;;;;;;;;5070152;28;20047;-61
2023/12/23 06:28:49;;;;;;;11.85;11.25;;;;;;;;;;5058718;28;20056;-59
2023/12/23 06:31:15;;;;;;;11.98;11.38;;;;;;;;;;5065022;28;20017;-61
2023/12/23 06:33:40;;;;;;;11.60;11.00;;;;;;;;;;5061688;28;20036;-60
2023/12/23 06:36:08;;;;;;;11.18;10.65;;;;;;;;;;5064395;28;20025;-61
2023/12/23 06:38:33;;;;;;;12.45;11.75;;;;;;;;;;5068957;28;20024;-60
2023/12/23 06:40:58;;;;;;;11.45;10.88;;;;;;;;;;5073549;28;20428;-60
2023/12/23 06:43:24;;;;;;;11.25;10.73;;;;;;;;;;5072038;28;20039;-60
2023/12/23 06:45:49;;;;;;;11.40;10.80;;;;;;;;;;5067216;28;20035;-58
2023/12/23 06:48:14;;;;;;;11.85;11.25;;;;;;;;;;5063138;28;20021;-57
2023/12/23 06:50:40;;;;;;;11.32;10.73;;;;;;;;;;5068847;28;20025;-56
2023/12/23 06:53:06;;;;;;;11.98;11.38;;;;;;;;;;5067892;28;20027;-56
2023/12/23 06:55:31;;;;;;;11.80;11.20;;;;;;;;;;5064429;28;20134;-71
2023/12/23 06:57:57;;;;;;;11.65;11.05;;;;;;;;;;5072728;28;20008;-66
2023/12/23 07:00:22;;;;;;;12.10;11.50;;;;;;;;;;5065748;28;20040;-57
2023/12/23 07:02:49;;;;;;;11.50;10.90;;;;;;;;;;5068800;28;20013;-55
2023/12/23 07:05:14;;;;;;;11.35;10.75;;;;;;;;;;5069175;28;20387;-55
2023/12/23 07:07:39;;;;;;;11.40;10.80;;;;;;;;;;5068104;28;20024;-57
2023/12/23 07:10:05;;;;;;;11.05;10.55;;;;;;;;;;5074011;28;20066;-59
2023/12/23 07:12:30;;;;;;;10.82;10.32;;;;;;;;;;5066118;28;20032;-56
2023/12/23 07:14:56;;;;;;;11.20;10.70;;;;;;;;;;5070490;28;20098;-56
2023/12/23 07:17:21;;;;;;;11.25;10.75;;;;;;;;;;5070673;28;20047;-58
2023/12/23 07:19:46;;;;;;;11.65;11.05;;;;;;;;;;5070309;28;20028;-57
2023/12/23 07:22:11;;;;;;;13.75;12.95;;;;;;;;;;5063110;28;20031;-58
2023/12/23 07:24:40;;;;;;;12.07;11.48;;;;;;;;;;5066040;28;20040;-55
2023/12/23 07:27:05;;;;;;;11.60;11.00;;;;;;;;;;5070875;28;20099;-59
2023/12/23 07:29:30;;;;;;;11.68;11.07;;;;;;;;;;5070681;28;20108;-55
2023/12/23 07:31:56;;;;;;;10.95;10.45;;;;;;;;;;5071433;28;20450;-56
2023/12/23 07:34:21;;;;;;;11.85;11.25;;;;;;;;;;5067448;28;20024;-58
2023/12/23 07:36:47;;;;;;;11.48;10.88;;;;;;;;;;5071016;28;20456;-57
2023/12/23 07:39:14;;;;;;;12.02;11.43;;;;;;;;;;5072078;28;20507;-56
2023/12/23 07:41:39;;;;;;;11.98;11.38;;;;;;;;;;5070261;28;20060;-58
2023/12/23 07:44:04;;;;;;;11.18;10.68;;;;;;;;;;5074242;28;20044;-55
2023/12/23 07:46:30;;;;;;;11.93;11.32;;;;;;;;;;5064056;28;20032;-57
2023/12/23 07:48:55;;;;;;;12.52;11.82;;;;;;;;;;5067005;28;20625;-56
2023/12/23 07:51:23;;;;;;;12.10;11.50;;;;;;;;;;5069470;28;20028;-56
2023/12/23 07:53:48;;;;;;;11.20;10.70;;;;;;;;;;5069608;28;20108;-55
2023/12/23 07:56:14;;;;;;;11.10;10.60;;;;;;;;;;5070534;28;20145;-57
2023/12/23 07:58:39;;;;;;;11.45;10.85;;;;;;;;;;5070185;28;20028;-58
2023/12/23 08:01:05;;;;;;;12.35;11.75;;;;;;;;;;5070382;28;20146;-57
2023/12/23 08:03:30;;;;;;;10.75;10.25;;;;;;;;;;5069548;28;20472;-58
2023/12/23 08:05:55;;;;;;;11.40;10.80;;;;;;;;;;5065119;28;20400;-56
2023/12/23 08:08:21;;;;;;;10.90;10.40;;;;;;;;;;5069455;28;20046;-56
2023/12/23 08:10:46;;;;;;;11.23;10.73;;;;;;;;;;5069570;28;20518;-56
2023/12/23 08:13:11;;;;;;;10.80;10.30;;;;;;;;;;5064872;28;20035;-56
2023/12/23 08:15:37;;;;;;;11.57;10.98;;;;;;;;;;5068524;28;20048;-58
2023/12/23 08:18:02;;;;;;;11.55;10.95;;;;;;;;;;5069863;28;20012;-55
2023/12/23 08:20:28;;;;;;;11.05;10.55;;;;;;;;;;5069027;28;20024;-58
2023/12/23 08:22:54;;;;;;;11.70;11.10;;;;;;;;;;5070375;28;20013;-57
2023/12/23 08:25:20;;;;;;;11.68;11.07;;;;;;;;;;5068475;28;20071;-59
2023/12/23 08:27:45;;;;;;;11.60;11.00;;;;;;;;;;5071868;28;20028;-59
2023/12/23 08:30:11;;;;;;;11.88;11.27;;;;;;;;;;5069031;28;20017;-57
2023/12/23 08:32:36;;;;;;;10.80;10.30;;;;;;;;;;5073891;28;20097;-59
2023/12/23 08:35:02;;;;;;;10.75;10.25;;;;;;;;;;5072475;28;20091;-58
2023/12/23 08:37:27;;;;;;;10.25;9.75;;;;;;;;;;5073193;28;20020;-56
2023/12/23 08:39:53;;;;;;;11.10;10.60;;;;;;;;;;5071638;28;20009;-57
2023/12/23 08:42:19;;;;;;;11.50;11.00;;;;;;;;;;5073084;28;20107;-58
2023/12/23 08:44:44;;;;;;;11.65;11.15;;;;;;;;;;5072701;28;20032;-61
2023/12/23 08:47:10;;;;;;;11.95;11.45;;;;;;;;;;5070141;28;20431;-60
2023/12/23 08:49:38;;;;;;;12.05;11.55;;;;;;;;;;5088404;28;20071;-59
2023/12/23 08:52:03;;;;;;;12.68;12.07;;;;;;;;;;5081341;28;20054;-59
2023/12/23 08:54:28;;;;;;;12.75;12.15;;;;;;;;;;5063080;28;20063;-60
2023/12/23 08:56:54;;;;;;;13.07;12.48;;;;;;;;;;5073756;28;20016;-59
2023/12/23 08:59:19;;;;;;;13.20;12.60;;;;;;;;;;5065540;28;20383;-59
2023/12/23 09:01:44;;;;;;;14.07;13.38;;;;;;;;;;5069171;28;20476;-59
2023/12/23 09:04:10;;;;;;;13.45;12.85;;;;;;;;;;5070987;28;20032;-58
2023/12/23 09:06:35;;;;;;;13.20;12.60;;;;;;;;;;5073356;28;20021;-58
2023/12/23 09:09:01;;;;;;;13.80;13.13;;;;;;;;;;5073008;28;20542;-59
2023/12/23 09:11:27;;;;;;;12.85;12.25;;;;;;;;;;5075016;28;20494;-58
2023/12/23 09:13:52;;;;;;;12.95;12.35;;;;;;;;;;5070807;28;20416;-60
2023/12/23 09:16:17;;;;;;;13.07;12.48;;;;;;;;;;5072318;28;20044;-58
2023/12/23 09:18:43;;;;;;;13.30;12.70;;;;;;;;;;5072499;28;20027;-59
2023/12/23 09:21:08;;;;;;;12.95;12.35;;;;;;;;;;5073669;28;20090;-59
2023/12/23 09:23:33;;;;;;;12.80;12.20;;;;;;;;;;5070667;28;20518;-57
2023/12/23 09:25:59;;;;;;;12.80;12.20;;;;;;;;;;5071177;28;20442;-58
2023/12/23 09:28:24;;;;;;;12.50;11.90;;;;;;;;;;5071517;28;20082;-59
2023/12/23 09:30:49;;;;;;;12.77;12.18;;;;;;;;;;5071770;28;20046;-58
2023/12/23 09:33:15;;;;;;;12.50;11.90;;;;;;;;;;5071749;28;20468;-58
2023/12/23 09:35:42;;;;;;;12.35;11.75;;;;;;;;;;5070705;28;20009;-56
2023/12/23 09:38:08;;;;;;;12.02;11.43;;;;;;;;;;5070338;28;20035;-57
2023/12/23 09:40:33;;;;;;;12.50;11.90;;;;;;;;;;5070474;28;20476;-56
2023/12/23 09:42:59;;;;;;;12.98;12.38;;;;;;;;;;5071515;28;20024;-56
2023/12/23 09:45:25;;;;;;;12.50;11.90;;;;;;;;;;5071769;28;20028;-59
2023/12/23 09:47:51;;;;;;;13.80;13.10;;;;;;;;;;5072842;28;20028;-57
2023/12/23 09:50:16;;;;;;;13.07;12.43;;;;;;;;;;5073919;28;20017;-59
2023/12/23 09:52:41;;;;;;;12.45;11.85;;;;;;;;;;5073830;28;20020;-59
2023/12/23 09:55:09;;;;;;;12.63;12.02;;;;;;;;;;5072665;28;20017;-57
2023/12/23 09:57:35;;;;;;;12.35;11.75;;;;;;;;;;5072481;28;20029;-57
2023/12/23 10:00:01;;;;;;;12.55;11.95;;;;;;;;;;5068739;28;20013;-58
2023/12/23 10:02:26;;;;;;;11.40;10.90;;;;;;;;;;5072874;28;20031;-57
2023/12/23 10:04:51;;;;;;;11.32;10.82;;;;;;;;;;5067754;28;20031;-58
2023/12/23 10:07:17;;;;;;;12.82;12.13;;;;;;;;;;5068156;28;20021;-52
2023/12/23 10:09:42;;;;;;;12.10;11.50;;;;;;;;;;5072418;28;20337;-58
2023/12/23 10:12:08;;;;;;;12.88;12.18;;;;;;;;;;5072404;28;20048;-56
2023/12/23 10:14:33;;;;;;;12.30;11.70;;;;;;;;;;5071563;28;20067;-62
2023/12/23 10:17:00;;;;;;;12.00;11.40;;;;;;;;;;5069978;28;20048;-58
2023/12/23 10:19:25;;;;;;;11.05;10.55;;;;;;;;;;5066046;28;20091;-59
2023/12/23 10:21:51;;;;;;;11.95;11.35;;;;;;;;;;5068267;28;20104;-56
2023/12/23 10:24:16;;;;;;;12.00;11.40;;;;;;;;;;5068056;28;20032;-57
2023/12/23 10:26:42;;;;;;;12.15;11.55;;;;;;;;;;5070556;28;20537;-58
2023/12/23 10:29:09;;;;;;;11.70;11.10;;;;;;;;;;5069271;28;20637;-57
2023/12/23 10:31:36;;;;;;;11.75;11.15;;;;;;;;;;5069184;28;20070;-58
2023/12/23 10:34:07;;;;;;;11.85;11.25;;;;;;;;;;5071716;28;20441;-58
2023/12/23 10:36:32;;;;;;;12.80;12.15;;;;;;;;;;5069808;28;20048;-59
2023/12/23 10:39:01;;;;;;;12.13;11.52;;;;;;;;;;5070058;28;20057;-57
2023/12/23 10:41:58;;;;;;;12.07;11.48;;;;;;;;;;5060169;28;20013;-59
2023/12/23 10:44:27;;;;;;;11.70;11.10;;;;;;;;;;5026505;28;20037;-59
2023/12/23 10:46:53;;;;;;;12.38;11.77;;;;;;;;;;5068359;28;20020;-57
2023/12/23 10:49:21;;;;;;;12.55;11.90;;;;;;;;;;5073259;28;20029;-58
2023/12/23 10:51:46;;;;;;;12.25;11.65;;;;;;;;;;5075357;28;20082;-57
2023/12/23 10:54:12;;;;;;;11.90;11.30;;;;;;;;;;5068907;28;20444;-59
2023/12/23 10:56:39;;;;;;;11.63;11.07;;;;;;;;;;5071315;28;20107;-57
2023/12/23 10:59:06;;;;;;;11.95;11.35;;;;;;;;;;5069969;28;20117;-57
2023/12/23 11:01:33;;;;;;;11.98;11.38;;;;;;;;;;5069540;28;20030;-59
2023/12/23 11:04:01;;;;;;;12.00;11.40;;;;;;;;;;5064099;28;20021;-57
2023/12/23 11:06:31;;;;;;;12.15;11.55;;;;;;;;;;5071918;28;20024;-56
2023/12/23 11:08:58;;;;;;;11.98;11.38;;;;;;;;;;5070510;28;20514;-57
2023/12/23 11:11:24;;;;;;;12.32;11.73;;;;;;;;;;5071651;28;20108;-57
2023/12/23 11:13:50;;;;;;;12.85;12.15;;;;;;;;;;5064554;28;20023;-56
2023/12/23 11:16:17;;;;;;;12.05;11.45;;;;;;;;;;5066022;28;20068;-56
2023/12/23 11:18:43;;;;;;;11.80;11.20;;;;;;;;;;5067230;28;20027;-59
2023/12/23 11:21:17;;;;;;;12.93;12.23;;;;;;;;;;5067684;28;20020;-56
2023/12/23 11:23:43;;;;;;;12.65;12.00;;;;;;;;;;5066457;28;20028;-60
2023/12/23 11:26:28;;;;;;;11.95;11.35;;;;;;;;;;5075017;28;20086;-59
2023/12/23 11:28:53;;;;;;;12.43;11.82;;;;;;;;;;5066051;28;20108;-58
2023/12/23 11:31:19;;;;;;;11.73;11.13;;;;;;;;;;5065067;28;20103;-59
2023/12/23 11:33:44;;;;;;;12.70;12.02;;;;;;;;;;5065462;28;20384;-61
2023/12/23 11:36:10;;;;;;;12.15;11.55;;;;;;;;;;5070669;28;20005;-56
2023/12/23 11:38:46;;;;;;;11.60;11.00;;;;;;;;;;5070179;28;20021;-58
2023/12/23 11:41:13;;;;;;;12.23;11.63;;;;;;;;;;5060918;28;20106;-57
2023/12/23 11:43:40;;;;;;;11.38;10.88;;;;;;;;;;5068472;28;20074;-57
2023/12/23 11:46:06;;;;;;;11.60;11.00;;;;;;;;;;5067670;28;20028;-59
2023/12/23 11:48:31;;;;;;;11.82;11.23;;;;;;;;;;5062548;28;20036;-56
2023/12/23 11:50:56;;;;;;;12.25;11.65;;;;;;;;;;5074980;28;20024;-57
2023/12/23 11:53:22;;;;;;;11.20;10.70;;;;;;;;;;5071285;28;20021;-59
2023/12/23 11:55:47;;;;;;;11.80;11.20;;;;;;;;;;5070037;28;20017;-58
2023/12/23 11:58:16;;;;;;;12.32;11.73;;;;;;;;;;5072324;28;20029;-57
2023/12/23 12:00:42;;;;;;;12.40;11.80;;;;;;;;;;5072405;28;20077;-60
2023/12/23 12:03:09;;;;;;;12.90;12.20;;;;;;;;;;5073657;28;20028;-57
2023/12/23 12:05:34;;;;;;;12.43;11.82;;;;;;;;;;5072243;28;20036;-58
2023/12/23 12:08:00;;;;;;;11.88;11.27;;;;;;;;;;5074270;28;20109;-59
2023/12/23 12:10:25;;;;;;;12.43;11.82;;;;;;;;;;5074249;28;20248;-59
2023/12/23 12:12:51;;;;;;;11.85;11.25;;;;;;;;;;5074402;28;20035;-57
2023/12/23 12:15:16;;;;;;;11.75;11.15;;;;;;;;;;5074701;28;20024;-58
2023/12/23 12:17:41;;;;;;;11.98;11.38;;;;;;;;;;5074188;28;20025;-57
2023/12/23 12:20:07;;;;;;;12.63;11.95;;;;;;;;;;5073114;28;20059;-57
2023/12/23 12:22:32;;;;;;;11.77;11.18;;;;;;;;;;5074578;28;20016;-59
2023/12/23 12:24:58;;;;;;;11.20;10.70;;;;;;;;;;5073064;28;20129;-56
2023/12/23 12:27:23;;;;;;;11.35;10.85;;;;;;;;;;5069646;28;20032;-57
2023/12/23 12:29:48;;;;;;;11.98;11.38;;;;;;;;;;5069256;28;20024;-57
2023/12/23 12:32:14;;;;;;;12.85;12.15;;;;;;;;;;5071648;28;20020;-57
2023/12/23 12:34:39;;;;;;;12.30;11.70;;;;;;;;;;5074073;28;20055;-57
2023/12/23 12:37:04;;;;;;;12.40;11.80;;;;;;;;;;5073396;28;20506;-58
2023/12/23 12:39:30;;;;;;;11.80;11.20;;;;;;;;;;5073912;28;20016;-56
2023/12/23 12:41:55;;;;;;;12.85;12.15;;;;;;;;;;5066570;28;20032;-60
2023/12/23 12:44:21;;;;;;;12.35;11.75;;;;;;;;;;5073157;28;20020;-59
2023/12/23 12:46:54;;;;;;;12.25;11.65;;;;;;;;;;5071464;28;20033;-55
2023/12/23 12:49:22;;;;;;;11.20;10.70;;;;;;;;;;5065379;28;20020;-59
2023/12/23 12:51:47;;;;;;;11.20;10.70;;;;;;;;;;5074174;28;20036;-58
2023/12/23 12:54:13;;;;;;;11.57;11.05;;;;;;;;;;5073770;28;20027;-60
2023/12/23 12:56:39;;;;;;;10.90;10.40;;;;;;;;;;5064363;28;20096;-57
2023/12/23 12:59:04;;;;;;;12.75;12.05;;;;;;;;;;5072794;28;20025;-56
2023/12/23 13:01:30;;;;;;;11.35;10.85;;;;;;;;;;5071983;28;20554;-59
2023/12/23 13:03:55;;;;;;;11.60;11.00;;;;;;;;;;5073067;28;20031;-58
2023/12/23 13:06:21;;;;;;;11.70;11.10;;;;;;;;;;5070953;28;20373;-59
2023/12/23 13:08:46;;;;;;;11.93;11.32;;;;;;;;;;5065698;28;20177;-60
2023/12/23 13:11:11;;;;;;;11.88;11.27;;;;;;;;;;5073734;28;20529;-60
2023/12/23 13:13:37;;;;;;;11.40;10.90;;;;;;;;;;5072005;28;20024;-57
2023/12/23 13:16:04;;;;;;;11.70;11.10;;;;;;;;;;5072710;28;20044;-56
2023/12/23 13:18:30;;;;;;;11.48;10.95;;;;;;;;;;5073814;28;20376;-58
2023/12/23 13:20:55;;;;;;;11.73;11.13;;;;;;;;;;5072814;28;20020;-58
2023/12/23 13:23:20;;;;;;;11.70;11.10;;;;;;;;;;5071205;28;20028;-57
2023/12/23 13:25:45;;;;;;;11.55;10.95;;;;;;;;;;5072029;28;20021;-56
2023/12/23 13:28:11;;;;;;;11.57;11.02;;;;;;;;;;5071338;28;20437;-59
2023/12/23 13:30:36;;;;;;;11.75;11.15;;;;;;;;;;5071968;28;20438;-58
2023/12/23 13:33:02;;;;;;;11.65;11.05;;;;;;;;;;5071883;28;20499;-57
2023/12/23 13:35:27;;;;;;;12.10;11.50;;;;;;;;;;5071988;28;20523;-58
2023/12/23 13:37:55;;;;;;;11.95;11.35;;;;;;;;;;5069388;28;20028;-57
2023/12/23 13:40:21;;;;;;;11.65;11.07;;;;;;;;;;5073080;28;20051;-58
2023/12/23 13:42:47;;;;;;;11.65;11.05;;;;;;;;;;5070043;28;20028;-60
2023/12/23 13:45:13;;;;;;;11.75;11.15;;;;;;;;;;5071245;28;20032;-58
2023/12/23 13:47:39;;;;;;;11.60;11.00;;;;;;;;;;5072494;28;20396;-59
2023/12/23 13:50:04;;;;;;;11.82;11.23;;;;;;;;;;5074418;28;20020;-56
2023/12/23 13:52:30;;;;;;;11.95;11.35;;;;;;;;;;5078485;28;20023;-59
2023/12/23 13:54:55;;;;;;;11.13;10.63;;;;;;;;;;5072393;28;20032;-55
2023/12/23 13:57:20;;;;;;;11.75;11.15;;;;;;;;;;5072883;28;20169;-58
2023/12/23 13:59:46;;;;;;;11.57;10.98;;;;;;;;;;5073928;28;20150;-56
2023/12/23 14:02:11;;;;;;;12.07;11.48;;;;;;;;;;5068068;28;20016;-58
2023/12/23 14:04:37;;;;;;;12.07;11.48;;;;;;;;;;5069105;28;20024;-57
2023/12/23 14:07:02;;;;;;;11.90;11.30;;;;;;;;;;5069952;28;20020;-58